createdAt,value
2022-08-23T00:02:23.757Z,99694.41
2022-08-23T00:05:08.660Z,99695.97
2022-08-23T00:07:39.947Z,99694.84
2022-08-23T00:10:11.723Z,99708.19
2022-08-23T00:12:42.900Z,99707.06
2022-08-23T00:15:16.811Z,99704.69
2022-08-23T00:17:48.857Z,99664.00
2022-08-23T00:20:25.938Z,99669.69
2022-08-23T00:22:54.946Z,99664.06
2022-08-23T00:25:25.817Z,99671.78
2022-08-23T00:27:55.861Z,99669.25
2022-08-23T00:30:26.082Z,99668.84
2022-08-23T00:32:57.938Z,99665.19
2022-08-23T00:35:28.406Z,99660.16
2022-08-23T00:38:33.085Z,99670.13
2022-08-23T00:40:51.843Z,99680.81
2022-08-23T00:43:46.459Z,99683.75
2022-08-23T00:46:42.228Z,99684.75
2022-08-23T00:49:34.195Z,99681.38
2022-08-23T00:52:09.581Z,99674.38
2022-08-23T00:54:44.580Z,99686.19
2022-08-23T00:57:19.675Z,99687.00
2022-08-23T00:59:50.759Z,99677.31
2022-08-23T01:02:33.685Z,99675.34
2022-08-23T01:05:11.621Z,99686.19
2022-08-23T01:07:53.961Z,99671.00
2022-08-23T01:10:38.452Z,99677.31
2022-08-23T01:13:16.431Z,99672.66
2022-08-23T01:15:56.332Z,99675.66
2022-08-23T01:18:28.392Z,99673.25
2022-08-23T01:21:04.548Z,99682.25
2022-08-23T01:23:59.845Z,99684.22
2022-08-23T01:26:32.423Z,99693.47
2022-08-23T01:29:09.163Z,99682.69
2022-08-23T01:31:41.090Z,99682.53
2022-08-23T01:34:12.277Z,99684.53
2022-08-23T01:36:41.119Z,99673.00
2022-08-23T01:39:15.631Z,99668.78
2022-08-23T01:41:44.801Z,99671.59
2022-08-23T01:44:15.219Z,99666.56
2022-08-23T01:46:47.572Z,99675.72
2022-08-23T01:49:19.070Z,99694.63
2022-08-23T01:51:48.886Z,99692.94
2022-08-23T01:54:19.030Z,99669.91
2022-08-23T01:56:49.443Z,99659.25
2022-08-23T01:59:18.094Z,99658.28
2022-08-23T02:01:51.861Z,99660.94
2022-08-23T02:04:26.014Z,99673.16
2022-08-23T02:06:55.881Z,99673.31
2022-08-23T02:09:28.017Z,99673.03
2022-08-23T02:12:00.907Z,99663.91
2022-08-23T02:14:33.199Z,99662.94
2022-08-23T02:17:07.334Z,99670.09
2022-08-23T02:19:40.275Z,99664.34
2022-08-23T02:22:13.461Z,99662.94
2022-08-23T02:24:45.804Z,99670.66
2022-08-23T02:27:15.999Z,99669.13
2022-08-23T02:29:48.619Z,99674.72
2022-08-23T02:32:20.972Z,99691.28
2022-08-23T02:35:01.758Z,99687.63
2022-08-23T02:37:36.009Z,99686.69
2022-08-23T02:40:08.614Z,99685.16
2022-08-23T02:42:38.258Z,99676.69
2022-08-23T02:45:08.809Z,99678.69
2022-08-23T02:47:45.257Z,99677.41
2022-08-23T02:50:21.595Z,99682.06
2022-08-23T02:52:51.042Z,99680.63
2022-08-23T02:55:21.727Z,99685.41
2022-08-23T02:57:50.561Z,99686.53
2022-08-23T03:00:20.599Z,99690.47
2022-08-23T03:02:52.259Z,99686.25
2022-08-23T03:05:21.797Z,99689.31
2022-08-23T03:07:50.822Z,99694.66
2022-08-23T03:10:20.738Z,99688.75
2022-08-23T03:12:55.979Z,99688.16
2022-08-23T03:15:24.640Z,99690.25
2022-08-23T03:17:53.086Z,99704.69
2022-08-23T03:20:21.993Z,99700.63
2022-08-23T03:22:54.665Z,99692.66
2022-08-23T03:25:27.413Z,99683.94
2022-08-23T03:28:09.836Z,99687.84
2022-08-23T03:30:43.294Z,99689.41
2022-08-23T03:33:13.235Z,99704.78
2022-08-23T03:35:42.704Z,99707.59
2022-08-23T03:38:14.375Z,99705.63
2022-08-23T03:40:46.072Z,99709.72
2022-08-23T03:43:15.460Z,99715.72
2022-08-23T03:45:44.177Z,99713.34
2022-08-23T03:48:13.028Z,99721.34
2022-08-23T03:50:42.011Z,99717.25
2022-08-23T03:53:11.008Z,99717.25
2022-08-23T03:55:43.863Z,99721.47
2022-08-23T03:58:18.180Z,99722.16
2022-08-23T04:00:47.105Z,99723.03
2022-08-23T04:03:17.118Z,99722.75
2022-08-23T04:06:07.301Z,99714.22
2022-08-23T04:08:36.070Z,99704.38
2022-08-23T04:11:08.206Z,99708.63
2022-08-23T04:13:43.831Z,99711.13
2022-08-23T04:16:13.891Z,99709.19
2022-08-23T04:18:42.648Z,99709.75
2022-08-23T04:21:17.021Z,99712.16
2022-08-23T04:23:46.129Z,99697.84
2022-08-23T04:26:15.330Z,99715.94
2022-08-23T04:28:47.993Z,99712.91
2022-08-23T04:31:18.880Z,99720.75
2022-08-23T04:33:52.454Z,99719.75
2022-08-23T04:36:23.561Z,99717.53
2022-08-23T04:38:58.457Z,99714.59
2022-08-23T04:41:45.775Z,99715.69
2022-08-23T04:44:16.054Z,99712.91
2022-08-23T04:46:47.094Z,99715.31
2022-08-23T04:49:16.813Z,99714.00
2022-08-23T04:51:53.475Z,99715.28
2022-08-23T04:54:23.910Z,99718.38
2022-08-23T04:57:11.365Z,99721.44
2022-08-23T04:59:44.077Z,99716.53
2022-08-23T05:02:12.763Z,99717.66
2022-08-23T05:04:43.658Z,99710.06
2022-08-23T05:07:12.950Z,99720.34
2022-08-23T05:09:41.795Z,99718.91
2022-08-23T05:12:12.675Z,99724.81
2022-08-23T05:14:41.790Z,99731.41
2022-08-23T05:17:21.073Z,99740.97
2022-08-23T05:19:50.258Z,99740.53
2022-08-23T05:22:18.992Z,99741.63
2022-08-23T05:25:07.741Z,99758.06
2022-08-23T05:27:39.546Z,99752.31
2022-08-23T05:30:14.398Z,99760.84
2022-08-23T05:32:46.241Z,99752.16
2022-08-23T05:35:15.543Z,99766.06
2022-08-23T05:37:46.673Z,99756.91
2022-08-23T05:40:15.705Z,99761.97
2022-08-23T05:42:58.061Z,99765.06
2022-08-23T05:45:28.232Z,99773.47
2022-08-23T05:47:59.412Z,99773.00
2022-08-23T05:50:35.852Z,99773.28
2022-08-23T05:53:04.849Z,99768.06
2022-08-23T05:55:34.760Z,99776.31
2022-08-23T05:58:27.505Z,99768.84
2022-08-23T06:01:01.516Z,99767.06
2022-08-23T06:03:32.064Z,99769.28
2022-08-23T06:06:02.957Z,99770.13
2022-08-23T06:08:31.787Z,99765.47
2022-08-23T06:11:02.921Z,99770.41
2022-08-23T06:13:41.500Z,99765.44
2022-08-23T06:16:14.851Z,99765.84
2022-08-23T06:18:47.714Z,99766.63
2022-08-23T06:21:41.340Z,99764.22
2022-08-23T06:24:10.942Z,99765.75
2022-08-23T06:50:23.311Z,99781.25
2022-08-23T06:53:11.211Z,99789.16
2022-08-23T06:55:54.950Z,99795.41
2022-08-23T06:58:29.192Z,99785.75
2022-08-23T07:01:44.638Z,99801.97
2022-08-23T07:04:23.052Z,99800.06
2022-08-23T07:07:20.983Z,99799.03
2022-08-23T07:09:49.816Z,99793.31
2022-08-23T07:12:20.067Z,99796.38
2022-08-23T07:14:51.754Z,99787.81
2022-08-23T07:17:21.411Z,99792.38
2022-08-23T07:19:53.185Z,99797.34
2022-08-23T07:22:26.995Z,99801.69
2022-08-23T07:24:56.633Z,99807.03
2022-08-23T07:27:28.260Z,99802.41
2022-08-23T07:30:07.173Z,99803.47
2022-08-23T07:32:38.767Z,99803.34
2022-08-23T07:35:17.937Z,99802.19
2022-08-23T07:37:49.427Z,99801.72
2022-08-23T07:40:20.517Z,99803.97
2022-08-23T07:42:53.823Z,99799.47
2022-08-23T07:45:24.039Z,99805.22
2022-08-23T07:47:57.535Z,99808.25
2022-08-23T07:50:30.610Z,99804.41
2022-08-23T07:53:03.868Z,99804.44
2022-08-23T07:55:33.226Z,99801.75
2022-08-23T07:58:16.557Z,99803.09
2022-08-23T08:00:57.135Z,99798.78
2022-08-23T08:03:44.055Z,99808.50
2022-08-23T08:06:25.495Z,99799.13
2022-08-23T08:08:58.119Z,99805.84
2022-08-23T08:11:34.248Z,99807.00
2022-08-23T08:14:08.577Z,99809.03
2022-08-23T08:16:44.164Z,99806.66
2022-08-23T08:19:18.938Z,99807.50
2022-08-23T08:22:27.951Z,99810.19
2022-08-23T08:25:18.567Z,99810.53
2022-08-23T08:27:48.519Z,99810.69
2022-08-23T08:30:18.451Z,99823.28
2022-08-23T08:32:48.292Z,99820.91
2022-08-23T08:35:17.891Z,99822.28
2022-08-23T08:37:48.655Z,99819.91
2022-08-23T08:40:26.135Z,99814.88
2022-08-23T08:43:14.300Z,99818.25
2022-08-23T08:45:59.220Z,99823.66
2022-08-23T08:48:31.999Z,99815.50
2022-08-23T08:51:02.732Z,99819.13
2022-08-23T08:53:38.930Z,99830.03
2022-08-23T08:56:21.321Z,99833.41
2022-08-23T08:59:06.708Z,99835.53
2022-08-23T09:01:38.623Z,99831.69
2022-08-23T09:04:09.644Z,99833.03
2022-08-23T09:06:51.334Z,99835.78
2022-08-23T09:09:37.225Z,99835.38
2022-08-23T09:12:19.459Z,99828.66
2022-08-23T09:15:04.134Z,99825.97
2022-08-23T09:17:44.142Z,99836.03
2022-08-23T09:20:16.019Z,99825.53
2022-08-23T09:22:51.536Z,99823.31
2022-08-23T09:25:31.164Z,99828.88
2022-08-23T09:28:08.312Z,99835.78
2022-08-23T09:30:50.145Z,99830.75
2022-08-23T09:33:22.717Z,99834.13
2022-08-23T09:36:17.156Z,99822.16
2022-08-23T09:38:54.406Z,99827.47
2022-08-23T09:41:28.195Z,99825.59
2022-08-23T09:44:02.632Z,99825.09
2022-08-23T09:46:42.194Z,99831.22
2022-08-23T09:49:26.671Z,99823.44
2022-08-23T09:52:02.304Z,99834.34
2022-08-23T09:54:35.496Z,99834.78
2022-08-23T09:57:10.980Z,99834.78
2022-08-23T09:59:47.181Z,99825.63
2022-08-23T10:02:28.034Z,99829.44
2022-08-23T10:05:03.075Z,99825.91
2022-08-23T10:07:42.735Z,99833.06
2022-08-23T10:10:29.835Z,99823.91
2022-08-23T10:13:05.521Z,99833.34
2022-08-23T10:15:49.598Z,99829.59
2022-08-23T10:18:30.553Z,99826.09
2022-08-23T10:21:04.673Z,99831.53
2022-08-23T10:23:48.524Z,99827.78
2022-08-23T10:26:26.351Z,99828.22
2022-08-23T10:29:22.502Z,99839.28
2022-08-23T10:32:05.368Z,99830.91
2022-08-23T10:35:04.548Z,99833.84
2022-08-23T10:37:48.795Z,99827.16
2022-08-23T10:40:28.942Z,99831.31
2022-08-23T10:43:10.845Z,99825.50
2022-08-23T10:45:43.395Z,99815.91
2022-08-23T10:48:30.864Z,99828.81
2022-08-23T10:51:04.693Z,99832.97
2022-08-23T10:53:48.264Z,99819.44
2022-08-23T10:56:21.011Z,99818.41
2022-08-23T10:59:02.335Z,99820.88
2022-08-23T11:01:42.129Z,99817.50
2022-08-23T11:04:25.062Z,99816.66
2022-08-23T11:07:20.144Z,99814.69
2022-08-23T11:09:54.556Z,99816.84
2022-08-23T11:12:29.271Z,99803.31
2022-08-23T11:15:20.168Z,99822.78
2022-08-23T11:18:05.832Z,99819.78
2022-08-23T11:21:06.958Z,99812.72
2022-08-23T11:23:54.812Z,99812.47
2022-08-23T11:27:07.846Z,99812.00
2022-08-23T11:29:48.695Z,99812.03
2022-08-23T11:32:50.224Z,99806.75
2022-08-23T11:35:43.102Z,99805.41
2022-08-23T11:38:17.299Z,99807.72
2022-08-23T11:41:01.270Z,99808.84
2022-08-23T11:43:38.727Z,99805.38
2022-08-23T11:46:36.124Z,99812.84
2022-08-23T11:49:33.692Z,99808.75
2022-08-23T11:52:17.817Z,99807.91
2022-08-23T11:55:01.865Z,99805.97
2022-08-23T11:57:48.751Z,99808.53
2022-08-23T12:00:28.682Z,99808.16
2022-08-23T12:03:03.634Z,99799.31
2022-08-23T12:06:07.405Z,99800.31
2022-08-23T12:08:53.959Z,99801.84
2022-08-23T12:11:26.638Z,99796.66
2022-08-23T12:14:00.277Z,99797.31
2022-08-23T12:16:49.628Z,99800.47
2022-08-23T12:19:39.480Z,99802.88
2022-08-23T12:22:13.584Z,99797.25
2022-08-23T12:24:46.879Z,99801.38
2022-08-23T12:27:29.814Z,99796.56
2022-08-23T12:30:04.207Z,99780.03
2022-08-23T12:32:45.986Z,99785.38
2022-08-23T12:35:30.499Z,99782.44
2022-08-23T12:38:08.212Z,99779.50
2022-08-23T12:40:42.553Z,99783.75
2022-08-23T12:43:22.481Z,99777.88
2022-08-23T12:45:54.604Z,99774.13
2022-08-23T12:48:25.677Z,99776.16
2022-08-23T12:50:59.621Z,99776.16
2022-08-23T12:53:30.787Z,99776.25
2022-08-23T12:56:02.082Z,99771.19
2022-08-23T12:58:36.052Z,99761.69
2022-08-23T13:01:07.993Z,99768.03
2022-08-23T13:03:40.591Z,99767.03
2022-08-23T13:06:13.487Z,99764.94
2022-08-23T13:08:48.946Z,99770.72
2022-08-23T13:11:22.463Z,99764.97
2022-08-23T13:13:53.262Z,99762.47
2022-08-23T13:16:28.996Z,99762.66
2022-08-23T13:19:16.824Z,99767.88
2022-08-23T13:21:45.857Z,99760.56
2022-08-23T13:24:37.940Z,99764.06
2022-08-23T13:27:23.094Z,99758.50
2022-08-23T13:29:56.609Z,99750.03
2022-08-23T13:32:39.627Z,99753.63
2022-08-23T13:35:30.563Z,99753.44
2022-08-23T13:38:03.289Z,99745.00
2022-08-23T13:40:34.854Z,99746.53
2022-08-23T13:43:10.117Z,99747.72
2022-08-23T13:45:49.092Z,99754.91
2022-08-23T13:48:22.219Z,99752.97
2022-08-23T13:50:51.371Z,99752.09
2022-08-23T13:53:20.497Z,99749.50
2022-08-23T13:55:52.168Z,99746.94
2022-08-23T13:58:29.071Z,99747.97
2022-08-23T14:01:00.665Z,99740.84
2022-08-23T14:03:31.566Z,99746.41
2022-08-23T14:06:00.543Z,99742.69
2022-08-23T14:08:29.087Z,99743.72
2022-08-23T14:10:57.665Z,99751.81
2022-08-23T14:13:31.006Z,99759.28
2022-08-23T14:21:42.891Z,99767.25
2022-08-23T14:24:12.017Z,99759.13
2022-08-23T14:26:51.669Z,99763.88
2022-08-23T14:29:22.481Z,99769.00
2022-08-23T14:31:53.597Z,99774.13
2022-08-23T14:34:22.806Z,99762.22
2022-08-23T14:39:42.203Z,99767.81
2022-08-23T14:42:11.337Z,99760.72
2022-08-23T14:44:40.231Z,99762.13
2022-08-23T14:47:10.258Z,99764.38
2022-08-23T14:49:39.051Z,99768.28
2022-08-23T14:52:08.008Z,99758.25
2022-08-23T14:54:36.893Z,99774.00
2022-08-23T14:57:06.593Z,99782.47
2022-08-23T14:59:35.907Z,99780.13
2022-08-23T15:02:06.313Z,99795.50
2022-08-23T15:04:37.705Z,99793.78
2022-08-23T15:07:17.635Z,99795.22
2022-08-23T15:09:49.918Z,99795.94
2022-08-23T15:15:12.267Z,99792.16
2022-08-23T15:17:52.500Z,99792.84
2022-08-23T15:20:30.195Z,99789.69
2022-08-23T15:23:00.430Z,99782.13
2022-08-23T15:25:32.284Z,99771.28
2022-08-23T15:28:02.673Z,99778.69
2022-08-23T15:30:34.339Z,99793.56
2022-08-23T15:33:03.651Z,99790.59
2022-08-23T15:35:41.032Z,99800.25
2022-08-23T15:38:11.947Z,99799.13
2022-08-23T15:40:40.725Z,99796.97
2022-08-23T15:43:10.507Z,99803.94
2022-08-23T15:45:39.873Z,99809.69
2022-08-23T15:48:16.873Z,99805.69
2022-08-23T15:50:48.536Z,99808.38
2022-08-23T15:53:17.562Z,99812.28
2022-08-23T15:55:47.191Z,99826.94
2022-08-23T15:58:18.787Z,99833.03
2022-08-23T16:00:47.957Z,99831.47
2022-08-23T16:03:18.748Z,99840.94
2022-08-23T16:05:53.227Z,99845.00
2022-08-23T16:08:26.299Z,99866.78
2022-08-23T16:10:55.671Z,99875.78
2022-08-23T16:13:25.067Z,99872.84
2022-08-23T16:15:54.642Z,99873.41
2022-08-23T16:18:23.582Z,99882.34
2022-08-23T16:20:54.370Z,99880.19
2022-08-23T16:23:26.559Z,99883.72
2022-08-23T16:26:00.886Z,99879.03
2022-08-23T16:28:30.921Z,99887.28
2022-08-23T16:30:59.882Z,99887.47
2022-08-23T16:33:29.056Z,99898.84
2022-08-23T16:35:59.721Z,99906.75
2022-08-23T16:38:28.404Z,99917.31
2022-08-23T16:40:56.833Z,99921.00
2022-08-23T16:43:25.436Z,99913.91
2022-08-23T16:45:57.292Z,99919.25
2022-08-23T16:48:26.492Z,99919.22
2022-08-23T16:50:55.312Z,99939.94
2022-08-23T16:53:28.107Z,99934.94
2022-08-23T16:55:57.477Z,99942.44
2022-08-23T16:58:26.514Z,99945.41
2022-08-23T17:00:57.568Z,99942.00
2022-08-23T17:03:27.223Z,99946.69
2022-08-23T17:05:55.965Z,99948.63
2022-08-23T17:08:28.541Z,99948.41
2022-08-23T17:11:01.143Z,99949.75
2022-08-23T17:13:32.558Z,99944.13
2022-08-23T17:16:01.070Z,99940.22
2022-08-23T17:18:29.473Z,99942.38
2022-08-23T17:20:59.318Z,99938.19
2022-08-23T17:23:29.100Z,99943.69
2022-08-23T17:25:57.847Z,99942.03
2022-08-23T17:28:26.790Z,99955.41
2022-08-23T17:30:58.826Z,99953.72
2022-08-23T17:33:27.935Z,99954.03
2022-08-23T17:35:56.442Z,99956.34
2022-08-23T17:38:28.131Z,99953.34
2022-08-23T17:40:59.093Z,99959.03
2022-08-23T17:43:28.585Z,99962.84
2022-08-23T17:45:57.217Z,99960.19
2022-08-23T17:48:25.940Z,99964.69
2022-08-23T17:50:55.809Z,99964.81
2022-08-23T17:53:24.660Z,99957.78
2022-08-23T17:55:53.191Z,99962.28
2022-08-23T17:58:23.298Z,99955.13
2022-08-23T18:00:57.187Z,99957.41
2022-08-23T18:03:26.958Z,99965.06
2022-08-23T18:05:55.403Z,99967.91
2022-08-23T18:08:24.643Z,99967.38
2022-08-23T18:10:54.974Z,99971.50
2022-08-23T18:13:25.517Z,99970.13
2022-08-23T18:15:54.339Z,99972.41
2022-08-23T18:18:23.124Z,99979.59
2022-08-23T18:20:51.919Z,99969.94
2022-08-23T18:23:20.536Z,99972.81
2022-08-23T18:25:49.150Z,99984.66
2022-08-23T18:28:18.227Z,99989.47
2022-08-23T18:30:50.603Z,99977.38
2022-08-23T18:33:21.428Z,99976.53
2022-08-23T18:35:54.429Z,99979.34
2022-08-23T18:38:22.982Z,99979.66
2022-08-23T18:40:51.440Z,99971.53
2022-08-23T18:43:22.473Z,99983.13
2022-08-23T18:45:55.970Z,99984.25
2022-08-23T18:48:26.490Z,99981.44
2022-08-23T18:50:54.871Z,99981.31
2022-08-23T18:53:23.337Z,99973.97
2022-08-23T18:55:52.581Z,99980.97
2022-08-23T18:58:22.783Z,99977.34
2022-08-23T19:00:52.414Z,99978.31
2022-08-23T19:03:22.395Z,99976.63
2022-08-23T19:05:51.022Z,99981.84
2022-08-23T19:08:20.141Z,99985.63
2022-08-23T19:10:48.865Z,99976.88
2022-08-23T19:13:17.656Z,99985.00
2022-08-23T19:15:47.144Z,99986.25
2022-08-23T19:18:16.270Z,99985.38
2022-08-23T19:20:46.460Z,99991.09
2022-08-23T19:23:15.527Z,99996.28
2022-08-23T19:25:45.572Z,99992.91
2022-08-23T19:28:15.188Z,100000.19
2022-08-23T19:30:44.751Z,99995.78
2022-08-23T19:33:14.039Z,100008.22
2022-08-23T19:35:43.280Z,100011.88
2022-08-23T19:38:14.337Z,100011.91
2022-08-23T19:40:43.766Z,100015.03
2022-08-23T19:43:12.666Z,100017.56
2022-08-23T19:45:41.243Z,100020.38
2022-08-23T19:48:10.230Z,100025.03
2022-08-23T19:50:40.302Z,100021.69
2022-08-23T19:53:10.025Z,100024.91
2022-08-23T19:55:43.363Z,100018.00
2022-08-23T19:58:15.315Z,100019.16
2022-08-23T20:00:44.072Z,100019.97
2022-08-23T20:03:13.023Z,100028.34
2022-08-23T20:05:42.269Z,100029.47
2022-08-23T20:08:10.903Z,100023.88
2022-08-23T20:10:39.964Z,100021.75
2022-08-23T20:13:10.090Z,100024.75
2022-08-23T20:15:40.056Z,100028.44
2022-08-23T20:18:08.651Z,100021.22
2022-08-23T20:20:38.286Z,100019.41
2022-08-23T20:23:25.262Z,100022.38
2022-08-23T20:25:54.327Z,100014.94
2022-08-23T20:28:26.454Z,100022.56
2022-08-23T20:30:55.079Z,100022.84
2022-08-23T20:33:24.971Z,100020.63
2022-08-23T20:35:57.531Z,100026.25
2022-08-23T20:38:33.947Z,100018.97
2022-08-23T20:41:03.449Z,100017.03
2022-08-23T20:43:35.788Z,100021.78
2022-08-23T20:46:05.189Z,100011.66
2022-08-23T20:48:35.527Z,100012.94
2022-08-23T20:51:07.383Z,100018.88
2022-08-23T20:53:38.393Z,100015.81
2022-08-23T20:56:07.926Z,100010.72
2022-08-23T20:58:38.349Z,100010.03
2022-08-23T21:01:10.287Z,100010.59
2022-08-23T21:03:40.063Z,100011.88
2022-08-23T21:06:11.018Z,100015.53
2022-08-23T21:08:43.415Z,100010.50
2022-08-23T21:11:18.410Z,100022.72
2022-08-23T21:13:49.575Z,100028.06
2022-08-23T21:16:18.924Z,100029.19
2022-08-23T21:18:48.833Z,100037.91
2022-08-23T21:21:21.566Z,100037.34
2022-08-23T21:23:51.372Z,100037.47
2022-08-23T21:26:20.349Z,100030.59
2022-08-23T21:28:54.647Z,100037.19
2022-08-23T21:31:28.772Z,100028.09
2022-08-23T21:33:57.612Z,100026.00
2022-08-23T21:36:26.583Z,100022.72
2022-08-23T21:38:55.686Z,100025.22
2022-08-23T21:41:34.029Z,100022.56
2022-08-23T21:44:07.229Z,100021.16
2022-08-23T21:46:37.060Z,100023.84
2022-08-23T21:49:06.319Z,100022.13
2022-08-23T21:51:35.450Z,100026.38
2022-08-23T21:54:04.313Z,100027.75
2022-08-23T21:56:33.592Z,100021.88
2022-08-23T21:59:07.167Z,100016.84
2022-08-23T22:01:36.610Z,100013.75
2022-08-23T22:04:07.655Z,100019.09
2022-08-23T22:06:37.242Z,100012.31
2022-08-23T22:09:08.396Z,100013.47
2022-08-23T22:11:37.859Z,100008.66
2022-08-23T22:14:08.681Z,100011.47
2022-08-23T22:16:37.708Z,100007.81
2022-08-23T22:19:07.023Z,100007.50
2022-08-23T22:21:36.591Z,100005.41
2022-08-23T22:24:06.132Z,99998.25
2022-08-23T22:26:35.724Z,100005.41
2022-08-23T22:29:06.058Z,100002.63
2022-08-23T22:31:38.256Z,100010.19
2022-08-23T22:34:08.901Z,100001.91
2022-08-23T22:36:37.953Z,100004.72
2022-08-23T22:39:07.866Z,100012.97
2022-08-23T22:41:37.386Z,100009.75
2022-08-23T22:44:06.585Z,100017.19
2022-08-23T22:46:37.325Z,100022.69
2022-08-23T22:49:06.250Z,100023.78
2022-08-23T22:51:37.052Z,100024.06
2022-08-23T22:54:09.660Z,100034.16
2022-08-23T22:56:48.624Z,100033.63
2022-08-23T22:59:19.948Z,100041.47
2022-08-23T23:01:53.193Z,100045.97
2022-08-23T23:04:25.474Z,100048.63
2022-08-23T23:06:56.384Z,100053.97
2022-08-23T23:09:25.669Z,100051.31
2022-08-23T23:11:55.243Z,100051.44
2022-08-23T23:14:25.621Z,100052.97
2022-08-23T23:16:56.336Z,100052.97
2022-08-23T23:19:47.987Z,100054.66
2022-08-23T23:22:16.655Z,100052.84
2022-08-23T23:24:46.001Z,100043.44
2022-08-23T23:27:14.558Z,100048.38
2022-08-23T23:29:43.324Z,100053.84
2022-08-23T23:32:13.531Z,100054.66
2022-08-23T23:34:42.288Z,100066.75
2022-08-23T23:37:11.504Z,100058.75
2022-08-23T23:39:40.239Z,100061.72
2022-08-23T23:42:09.347Z,100057.19
2022-08-23T23:44:37.993Z,100064.09
2022-08-23T23:47:06.765Z,100064.81
2022-08-23T23:49:36.934Z,100067.47
2022-08-23T23:52:07.411Z,100053.03
2022-08-23T23:54:39.130Z,100045.00
2022-08-23T23:57:08.041Z,100043.16
2022-08-23T23:59:37.613Z,100037.28
